createdAt,value
2023-04-04T00:00:45.269Z,98675.94
2023-04-04T00:03:17.703Z,98676.88
2023-04-04T00:05:45.900Z,98682.13
2023-04-04T00:08:13.395Z,98677.06
2023-04-04T00:10:41.534Z,98677.22
2023-04-04T00:13:09.821Z,98673.09
2023-04-04T00:15:37.473Z,98671.47
2023-04-04T00:18:05.097Z,98674.97
2023-04-04T00:20:32.752Z,98664.66
2023-04-04T00:23:00.679Z,98666.50
2023-04-04T00:25:28.387Z,98664.00
2023-04-04T00:27:56.278Z,98662.50
2023-04-04T00:30:23.901Z,98665.97
2023-04-04T00:32:51.870Z,98669.63
2023-04-04T00:35:19.541Z,98655.16
2023-04-04T00:37:46.798Z,98661.06
2023-04-04T00:40:14.901Z,98661.19
2023-04-04T00:42:42.474Z,98661.97
2023-04-04T00:45:11.146Z,98659.53
2023-04-04T00:47:43.380Z,98667.28
2023-04-04T00:50:11.324Z,98667.31
2023-04-04T00:52:38.839Z,98660.50
2023-04-04T00:55:07.379Z,98658.78
2023-04-04T00:57:36.187Z,98658.88
2023-04-04T01:00:06.663Z,98660.75
2023-04-04T01:02:35.823Z,98667.56
2023-04-04T01:05:04.609Z,98667.78
2023-04-04T01:07:32.652Z,98664.38
2023-04-04T01:10:01.625Z,98667.69
2023-04-04T01:12:29.186Z,98666.09
2023-04-04T01:14:56.911Z,98668.75
2023-04-04T01:17:26.107Z,98667.19
2023-04-04T01:20:14.161Z,98668.91
2023-04-04T01:22:44.042Z,98667.22
2023-04-04T01:25:13.312Z,98662.25
2023-04-04T01:27:40.741Z,98670.00
2023-04-04T01:30:10.496Z,98664.28
2023-04-04T01:32:51.980Z,98673.75
2023-04-04T01:35:25.836Z,98676.22
2023-04-04T01:38:01.155Z,98674.56
2023-04-04T01:40:35.600Z,98680.50
2023-04-04T01:43:03.922Z,98683.31
2023-04-04T01:45:33.067Z,98681.63
2023-04-04T01:48:00.433Z,98669.66
2023-04-04T01:50:28.032Z,98674.78
2023-04-04T01:52:55.363Z,98675.72
2023-04-04T01:55:22.974Z,98684.38
2023-04-04T01:57:51.334Z,98683.63
2023-04-04T02:00:19.420Z,98687.00
2023-04-04T02:02:46.729Z,98684.44
2023-04-04T02:05:14.572Z,98683.53
2023-04-04T02:07:42.008Z,98675.03
2023-04-04T02:10:09.900Z,98682.00
2023-04-04T02:12:37.155Z,98687.19
2023-04-04T02:15:05.273Z,98683.81
2023-04-04T02:17:32.710Z,98688.03
2023-04-04T02:20:00.305Z,98687.97
2023-04-04T02:22:27.872Z,98683.81
2023-04-04T02:24:57.704Z,98686.38
2023-04-04T02:27:25.173Z,98692.28
2023-04-04T02:29:53.967Z,98689.91
2023-04-04T02:32:21.712Z,98687.34
2023-04-04T02:34:49.316Z,98686.38
2023-04-04T02:37:17.925Z,98693.25
2023-04-04T02:39:45.765Z,98692.53
2023-04-04T02:42:13.084Z,98696.72
2023-04-04T02:44:40.677Z,98696.78
2023-04-04T02:47:08.022Z,98692.53
2023-04-04T02:49:35.940Z,98688.28
2023-04-04T02:52:03.227Z,98692.63
2023-04-04T02:54:30.898Z,98696.13
2023-04-04T02:56:58.158Z,98697.13
2023-04-04T02:59:26.110Z,98689.50
2023-04-04T03:01:53.597Z,98687.09
2023-04-04T03:04:21.306Z,98684.50
2023-04-04T03:06:48.529Z,98688.78
2023-04-04T03:09:16.284Z,98683.81
2023-04-04T03:11:43.538Z,98688.88
2023-04-04T03:14:11.432Z,98689.66
2023-04-04T03:16:39.601Z,98691.53
2023-04-04T03:19:07.629Z,98684.69
2023-04-04T03:21:35.046Z,98680.38
2023-04-04T03:24:02.769Z,98683.69
2023-04-04T03:26:30.127Z,98683.47
2023-04-04T03:28:57.739Z,98683.47
2023-04-04T03:31:25.235Z,98684.28
2023-04-04T03:33:52.983Z,98684.50
2023-04-04T03:36:21.227Z,98686.16
2023-04-04T03:38:48.893Z,98683.41
2023-04-04T03:41:16.278Z,98682.53
2023-04-04T03:43:45.171Z,98682.47
2023-04-04T03:46:12.612Z,98682.44
2023-04-04T03:48:40.338Z,98680.75
2023-04-04T03:51:07.878Z,98678.94
2023-04-04T03:53:36.893Z,98689.28
2023-04-04T03:56:04.877Z,98685.84
2023-04-04T03:58:32.495Z,98686.84
2023-04-04T04:00:59.845Z,98678.19
2023-04-04T04:03:27.614Z,98676.59
2023-04-04T04:05:55.478Z,98685.22
2023-04-04T04:08:24.017Z,98676.66
2023-04-04T04:10:52.640Z,98678.88
2023-04-04T04:13:20.602Z,98675.75
2023-04-04T04:15:48.038Z,98673.94
2023-04-04T04:18:15.853Z,98667.09
2023-04-04T04:20:43.316Z,98676.63
2023-04-04T04:23:11.263Z,98669.03
2023-04-04T04:25:38.543Z,98670.69
2023-04-04T04:28:06.135Z,98661.47
2023-04-04T04:30:33.486Z,98659.81
2023-04-04T04:33:01.099Z,98659.00
2023-04-04T04:35:28.467Z,98664.00
2023-04-04T04:37:56.560Z,98660.44
2023-04-04T04:40:23.816Z,98663.09
2023-04-04T04:42:52.003Z,98666.66
2023-04-04T04:45:20.877Z,98662.31
2023-04-04T04:47:48.493Z,98664.25
2023-04-04T04:50:16.353Z,98676.06
2023-04-04T04:52:44.327Z,98669.28
2023-04-04T04:55:12.049Z,98671.75
2023-04-04T04:57:39.596Z,98676.56
2023-04-04T05:00:07.890Z,98675.50
2023-04-04T05:02:35.782Z,98669.41
2023-04-04T05:05:03.287Z,98682.75
2023-04-04T05:07:30.863Z,98680.66
2023-04-04T05:09:58.112Z,98681.38
2023-04-04T05:12:25.658Z,98684.91
2023-04-04T05:14:53.035Z,98689.94
2023-04-04T05:17:22.750Z,98681.94
2023-04-04T05:19:50.125Z,98681.16
2023-04-04T05:22:17.689Z,98681.53
2023-04-04T05:24:44.950Z,98688.25
2023-04-04T05:27:12.613Z,98686.19
2023-04-04T05:29:39.928Z,98689.06
2023-04-04T05:32:07.739Z,98688.09
2023-04-04T05:34:35.139Z,98684.53
2023-04-04T05:37:02.656Z,98691.09
2023-04-04T05:39:29.977Z,98683.53
2023-04-04T05:41:57.579Z,98691.81
2023-04-04T05:44:25.783Z,98692.09
2023-04-04T05:46:53.353Z,98693.84
2023-04-04T05:49:20.636Z,98696.53
2023-04-04T05:51:48.189Z,98683.47
2023-04-04T05:54:15.391Z,98692.56
2023-04-04T05:56:42.935Z,98679.88
2023-04-04T05:59:10.316Z,98688.22
2023-04-04T06:01:37.853Z,98695.91
2023-04-04T06:04:05.083Z,98690.16
2023-04-04T06:06:34.727Z,98691.53
2023-04-04T06:09:02.417Z,98688.47
2023-04-04T06:11:30.125Z,98688.84
2023-04-04T06:13:57.366Z,98694.75
2023-04-04T06:16:24.976Z,98678.16
2023-04-04T06:18:52.282Z,98688.38
2023-04-04T06:21:19.811Z,98690.41
2023-04-04T06:23:47.395Z,98693.16
2023-04-04T06:26:15.110Z,98694.34
2023-04-04T06:28:51.443Z,98689.09
2023-04-04T06:31:19.007Z,98692.59
2023-04-04T06:33:46.614Z,98689.44
2023-04-04T06:36:14.133Z,98697.94
2023-04-04T06:38:41.351Z,98686.81
2023-04-04T06:41:08.884Z,98684.31
2023-04-04T06:43:36.131Z,98687.88
2023-04-04T06:46:04.158Z,98684.50
2023-04-04T06:48:31.436Z,98685.31
2023-04-04T06:50:59.008Z,98684.19
2023-04-04T06:53:26.348Z,98683.53
2023-04-04T06:55:53.898Z,98691.53
2023-04-04T06:58:21.358Z,98690.72
2023-04-04T07:00:49.004Z,98682.94
2023-04-04T07:03:16.992Z,98679.88
2023-04-04T07:05:44.618Z,98677.53
2023-04-04T07:08:11.938Z,98673.56
2023-04-04T07:10:40.677Z,98663.00
2023-04-04T07:13:08.598Z,98664.66
2023-04-04T07:15:36.432Z,98670.41
2023-04-04T07:18:03.801Z,98671.66
2023-04-04T07:20:32.372Z,98665.78
2023-04-04T07:22:59.679Z,98675.16
2023-04-04T07:25:27.294Z,98679.28
2023-04-04T07:28:09.642Z,98677.13
2023-04-04T07:30:40.064Z,98674.53
2023-04-04T07:33:07.711Z,98669.16
2023-04-04T07:35:35.836Z,98673.88
2023-04-04T07:38:04.386Z,98673.72
2023-04-04T07:40:32.119Z,98672.09
2023-04-04T07:42:59.457Z,98670.59
2023-04-04T07:45:27.138Z,98675.56
2023-04-04T07:47:54.633Z,98664.59
2023-04-04T07:50:22.745Z,98668.25
2023-04-04T07:52:54.510Z,98670.06
2023-04-04T07:55:25.276Z,98677.47
2023-04-04T07:57:54.671Z,98673.56
2023-04-04T08:00:25.847Z,98670.09
2023-04-04T08:02:59.140Z,98680.44
2023-04-04T08:05:27.207Z,98670.84
2023-04-04T08:07:54.725Z,98676.25
2023-04-04T08:10:22.306Z,98669.66
2023-04-04T08:12:49.667Z,98671.59
2023-04-04T08:15:17.348Z,98661.56
2023-04-04T08:17:44.807Z,98670.22
2023-04-04T08:20:13.307Z,98663.25
2023-04-04T08:22:42.239Z,98656.59
2023-04-04T08:25:11.343Z,98654.91
2023-04-04T08:27:44.140Z,98668.28
2023-04-04T08:30:14.489Z,98671.50
2023-04-04T08:32:44.354Z,98668.75
2023-04-04T08:35:12.989Z,98659.41
2023-04-04T08:37:45.885Z,98654.94
2023-04-04T08:40:14.390Z,98655.78
2023-04-04T08:42:47.143Z,98658.53
2023-04-04T08:45:22.742Z,98657.47
2023-04-04T08:47:52.563Z,98655.16
2023-04-04T08:50:21.780Z,98655.72
2023-04-04T08:52:50.037Z,98647.41
2023-04-04T08:55:18.048Z,98645.53
2023-04-04T08:57:45.374Z,98649.03
2023-04-04T09:00:14.786Z,98641.75
2023-04-04T09:03:03.864Z,98644.41
2023-04-04T09:05:33.031Z,98638.66
2023-04-04T09:08:00.987Z,98640.63
2023-04-04T09:10:29.910Z,98631.84
2023-04-04T09:13:08.678Z,98634.75
2023-04-04T09:15:52.398Z,98632.41
2023-04-04T09:18:20.017Z,98625.69
2023-04-04T09:20:48.887Z,98632.63
2023-04-04T09:23:23.593Z,98637.91
2023-04-04T09:28:26.433Z,98623.41
2023-04-04T09:30:54.098Z,98628.38
2023-04-04T09:33:26.396Z,98627.13
2023-04-04T09:36:07.823Z,98627.91
2023-04-04T09:38:44.190Z,98625.91
2023-04-04T09:41:16.226Z,98630.59
2023-04-04T09:43:46.229Z,98634.72
2023-04-04T09:46:16.005Z,98629.94
2023-04-04T09:48:51.131Z,98637.06
2023-04-04T09:51:18.977Z,98625.41
2023-04-04T09:53:49.021Z,98635.34
2023-04-04T09:56:17.126Z,98631.81
2023-04-04T09:59:00.771Z,98634.69
2023-04-04T10:01:31.605Z,98638.66
2023-04-04T10:03:59.584Z,98631.78
2023-04-04T10:06:27.614Z,98636.50
2023-04-04T10:08:56.858Z,98627.31
2023-04-04T10:11:33.781Z,98630.94
2023-04-04T10:14:05.956Z,98627.47
2023-04-04T10:16:37.220Z,98620.53
2023-04-04T10:19:08.032Z,98622.84
2023-04-04T10:21:36.068Z,98621.25
2023-04-04T10:24:09.992Z,98619.00
2023-04-04T10:26:38.065Z,98607.09
2023-04-04T10:29:06.151Z,98620.44
2023-04-04T10:31:41.622Z,98615.81
2023-04-04T10:34:36.176Z,98610.41
2023-04-04T10:37:13.299Z,98607.47
2023-04-04T10:40:10.259Z,98617.34
2023-04-04T10:42:47.266Z,98615.63
2023-04-04T10:45:21.481Z,98612.09
2023-04-04T10:47:50.935Z,98617.66
2023-04-04T10:50:20.723Z,98610.53
2023-04-04T10:52:49.419Z,98616.69
2023-04-04T10:55:17.315Z,98604.50
2023-04-04T10:57:52.016Z,98604.28
2023-04-04T11:00:23.391Z,98601.09
2023-04-04T11:02:57.895Z,98601.47
2023-04-04T11:05:34.472Z,98606.19
2023-04-04T11:08:09.298Z,98599.00
2023-04-04T11:10:57.921Z,98599.09
2023-04-04T11:13:35.884Z,98596.81
2023-04-04T11:16:15.298Z,98604.31
2023-04-04T11:18:46.000Z,98599.59
2023-04-04T11:21:20.665Z,98605.16
2023-04-04T11:23:48.603Z,98604.16
2023-04-04T11:26:35.601Z,98612.00
2023-04-04T11:29:09.893Z,98611.59
2023-04-04T11:31:48.809Z,98616.44
2023-04-04T11:34:31.996Z,98587.88
2023-04-04T11:37:02.036Z,98589.88
2023-04-04T11:39:31.487Z,98590.94
2023-04-04T11:42:14.997Z,98586.75
2023-04-04T11:45:04.459Z,98587.63
2023-04-04T11:47:32.041Z,98592.00
2023-04-04T11:50:07.374Z,98582.94
2023-04-04T11:52:35.697Z,98586.06
2023-04-04T11:55:23.140Z,98576.06
2023-04-04T11:57:51.479Z,98569.56
2023-04-04T12:00:35.064Z,98580.53
2023-04-04T12:03:04.621Z,98582.78
2023-04-04T12:05:32.513Z,98582.00
2023-04-04T12:08:02.335Z,98579.84
2023-04-04T12:10:34.541Z,98574.56
2023-04-04T12:13:05.663Z,98577.91
2023-04-04T12:15:38.132Z,98572.25
2023-04-04T12:18:09.905Z,98570.69
2023-04-04T12:20:41.671Z,98575.81
2023-04-04T12:23:09.798Z,98571.38
2023-04-04T12:25:40.347Z,98571.91
2023-04-04T12:28:08.872Z,98566.31
2023-04-04T12:30:38.501Z,98574.88
2023-04-04T12:33:07.769Z,98568.13
2023-04-04T12:35:36.344Z,98569.16
2023-04-04T12:38:10.723Z,98570.50
2023-04-04T12:40:39.738Z,98574.97
2023-04-04T12:43:09.468Z,98571.75
2023-04-04T12:45:39.638Z,98577.25
2023-04-04T12:48:18.238Z,98577.72
2023-04-04T12:51:00.859Z,98582.06
2023-04-04T12:53:30.364Z,98583.25
2023-04-04T12:56:04.853Z,98584.63
2023-04-04T12:58:34.882Z,98579.75
2023-04-04T13:01:04.389Z,98593.06
2023-04-04T13:03:33.924Z,98595.16
2023-04-04T13:06:02.642Z,98592.88
2023-04-04T13:08:30.294Z,98578.69
2023-04-04T13:11:07.052Z,98578.31
2023-04-04T13:13:44.283Z,98586.75
2023-04-04T13:16:38.229Z,98573.50
2023-04-04T13:19:05.785Z,98578.13
2023-04-04T13:21:35.310Z,98578.78
2023-04-04T13:24:04.094Z,98588.25
2023-04-04T13:26:31.819Z,98587.63
2023-04-04T13:28:59.223Z,98578.00
2023-04-04T13:31:27.270Z,98589.03
2023-04-04T13:33:54.586Z,98586.34
2023-04-04T13:36:22.186Z,98592.97
2023-04-04T13:38:49.567Z,98591.94
2023-04-04T13:41:17.173Z,98602.09
2023-04-04T13:43:44.479Z,98598.81
2023-04-04T13:46:12.253Z,98594.75
2023-04-04T13:48:39.593Z,98591.66
2023-04-04T13:51:07.330Z,98598.22
2023-04-04T13:53:34.618Z,98590.84
2023-04-04T13:56:17.785Z,98588.88
2023-04-04T13:58:46.537Z,98588.56
2023-04-04T14:01:14.173Z,98582.50
2023-04-04T14:03:41.642Z,98568.28
2023-04-04T14:06:10.836Z,98555.38
2023-04-04T14:08:39.551Z,98562.53
2023-04-04T14:11:07.268Z,98554.78
2023-04-04T14:13:34.690Z,98555.91
2023-04-04T14:16:02.206Z,98568.09
2023-04-04T14:18:29.529Z,98565.97
2023-04-04T14:20:57.117Z,98572.50
2023-04-04T14:23:24.439Z,98576.47
2023-04-04T14:25:52.243Z,98584.03
2023-04-04T14:28:19.547Z,98578.69
2023-04-04T14:30:47.111Z,98577.59
2023-04-04T14:33:14.440Z,98572.19
2023-04-04T14:35:42.330Z,98576.03
2023-04-04T14:38:09.884Z,98569.44
2023-04-04T14:40:37.606Z,98572.03
2023-04-04T14:43:04.858Z,98581.84
2023-04-04T14:45:33.265Z,98572.53
2023-04-04T14:48:00.715Z,98560.44
2023-04-04T14:50:28.315Z,98559.63
2023-04-04T14:52:56.765Z,98568.84
2023-04-04T14:55:24.652Z,98573.41
2023-04-04T15:00:24.364Z,98561.94
2023-04-04T15:02:52.611Z,98569.38
2023-04-04T15:05:20.494Z,98577.13
2023-04-04T15:07:49.500Z,98564.63
2023-04-04T15:10:17.329Z,98573.28
2023-04-04T15:12:44.686Z,98573.50
2023-04-04T15:15:13.394Z,98566.03
2023-04-04T15:17:42.286Z,98564.53
2023-04-04T15:20:10.929Z,98557.56
2023-04-04T15:22:38.819Z,98559.41
2023-04-04T15:25:08.410Z,98561.50
2023-04-04T15:27:36.193Z,98555.53
2023-04-04T15:30:04.412Z,98561.34
2023-04-04T15:32:31.669Z,98557.38
2023-04-04T15:34:59.316Z,98553.28
2023-04-04T15:37:26.658Z,98565.25
2023-04-04T15:39:54.840Z,98572.25
2023-04-04T15:42:22.166Z,98567.72
2023-04-04T15:44:49.697Z,98579.22
2023-04-04T15:47:17.361Z,98570.41
2023-04-04T15:49:44.882Z,98576.50
2023-04-04T15:52:12.397Z,98571.31
2023-04-04T15:54:39.972Z,98584.16
2023-04-04T15:57:07.281Z,98568.78
2023-04-04T15:59:34.943Z,98571.63
2023-04-04T16:02:06.493Z,98570.25
2023-04-04T16:04:34.424Z,98570.59
2023-04-04T16:07:01.713Z,98579.91
2023-04-04T16:09:29.434Z,98582.84
2023-04-04T16:11:57.306Z,98581.19
2023-04-04T16:14:25.163Z,98580.56
2023-04-04T16:16:52.719Z,98587.59
2023-04-04T16:19:20.643Z,98589.25
2023-04-04T16:21:49.374Z,98584.22
2023-04-04T16:24:16.961Z,98595.50
2023-04-04T16:26:47.505Z,98592.84
2023-04-04T16:29:18.578Z,98595.88
2023-04-04T16:31:46.003Z,98601.97
2023-04-04T16:34:13.891Z,98604.09
2023-04-04T16:36:41.404Z,98595.69
2023-04-04T16:39:09.102Z,98592.69
2023-04-04T16:41:40.895Z,98594.19
2023-04-04T16:44:08.779Z,98599.94
2023-04-04T16:46:36.472Z,98602.44
2023-04-04T16:49:04.039Z,98600.94
2023-04-04T16:51:32.166Z,98592.66
2023-04-04T16:53:59.800Z,98596.53
2023-04-04T16:56:27.122Z,98602.00
2023-04-04T16:58:54.727Z,98600.78
2023-04-04T17:01:23.072Z,98603.91
2023-04-04T17:03:50.978Z,98601.69
2023-04-04T17:06:18.312Z,98612.22
2023-04-04T17:08:46.836Z,98616.25
2023-04-04T17:11:14.380Z,98613.16
2023-04-04T17:13:42.345Z,98618.75
2023-04-04T17:16:10.014Z,98626.06
2023-04-04T17:18:37.761Z,98618.69
2023-04-04T17:21:05.481Z,98626.66
2023-04-04T17:23:33.802Z,98624.97
2023-04-04T17:26:01.072Z,98631.16
2023-04-04T17:28:28.644Z,98630.47
2023-04-04T17:30:56.517Z,98625.19
2023-04-04T17:33:24.134Z,98633.91
2023-04-04T17:35:51.559Z,98627.16
2023-04-04T17:38:20.661Z,98625.72
2023-04-04T17:40:49.671Z,98633.25
2023-04-04T17:43:17.204Z,98633.56
2023-04-04T17:45:45.015Z,98642.97
2023-04-04T17:48:12.873Z,98640.94
2023-04-04T17:50:40.633Z,98651.28
2023-04-04T17:53:08.527Z,98660.13
2023-04-04T17:55:36.845Z,98658.69
2023-04-04T17:58:04.390Z,98658.50
2023-04-04T18:00:31.610Z,98658.31
2023-04-04T18:02:59.326Z,98656.38
2023-04-04T18:05:27.248Z,98656.63
2023-04-04T18:07:54.905Z,98661.69
2023-04-04T18:10:22.095Z,98650.69
2023-04-04T18:12:49.711Z,98648.03
2023-04-04T18:15:16.991Z,98654.09
2023-04-04T18:17:44.594Z,98656.84
2023-04-04T18:20:16.343Z,98657.72
2023-04-04T18:22:48.944Z,98658.75
2023-04-04T18:25:17.929Z,98657.97
2023-04-04T18:27:46.078Z,98654.41
2023-04-04T18:30:13.632Z,98657.91
2023-04-04T18:32:41.426Z,98653.72
2023-04-04T18:35:09.113Z,98655.56
2023-04-04T18:37:37.565Z,98654.81
2023-04-04T18:40:05.558Z,98647.22
2023-04-04T18:42:35.195Z,98651.25
2023-04-04T18:45:03.062Z,98654.84
2023-04-04T18:47:30.671Z,98657.91
2023-04-04T18:49:58.032Z,98669.25
2023-04-04T18:52:25.634Z,98661.59
2023-04-04T18:54:52.948Z,98655.09
2023-04-04T18:57:20.498Z,98659.59
2023-04-04T18:59:47.828Z,98660.97
2023-04-04T19:02:15.361Z,98651.41
2023-04-04T19:04:43.879Z,98655.19
2023-04-04T19:07:12.116Z,98657.84
2023-04-04T19:09:41.381Z,98657.69
2023-04-04T19:12:09.905Z,98660.38
2023-04-04T19:14:37.266Z,98654.34
2023-04-04T19:17:04.989Z,98657.03
2023-04-04T19:19:32.298Z,98657.06
2023-04-04T19:22:00.076Z,98654.53
2023-04-04T19:24:27.488Z,98652.00
2023-04-04T19:26:55.104Z,98654.56
2023-04-04T19:29:22.506Z,98659.75
2023-04-04T19:31:52.794Z,98660.69
2023-04-04T19:34:20.119Z,98658.16
2023-04-04T19:36:47.801Z,98661.63
2023-04-04T19:39:20.133Z,98659.16
2023-04-04T19:41:47.790Z,98654.09
2023-04-04T19:44:21.380Z,98648.94
2023-04-04T19:46:50.205Z,98655.00
2023-04-04T19:49:18.045Z,98655.06
2023-04-04T19:51:57.678Z,98653.41
2023-04-04T19:54:40.927Z,98658.56
2023-04-04T19:57:19.597Z,98652.56
2023-04-04T20:00:03.914Z,98656.09
2023-04-04T20:02:31.486Z,98653.53
2023-04-04T20:04:59.050Z,98652.84
2023-04-04T20:07:29.045Z,98649.47
2023-04-04T20:09:56.754Z,98647.72
2023-04-04T20:12:25.757Z,98650.31
2023-04-04T20:14:59.425Z,98652.19
2023-04-04T20:17:27.191Z,98650.47
2023-04-04T20:19:54.515Z,98641.88
2023-04-04T20:22:23.529Z,98651.41
2023-04-04T20:24:51.027Z,98648.00
2023-04-04T20:27:27.798Z,98647.34
2023-04-04T20:29:55.138Z,98657.75
2023-04-04T20:32:22.953Z,98650.88
2023-04-04T20:34:50.728Z,98659.53
2023-04-04T20:37:25.017Z,98650.28
2023-04-04T20:40:00.186Z,98658.00
2023-04-04T20:42:29.395Z,98653.94
2023-04-04T20:45:33.157Z,98651.50
2023-04-04T20:48:03.883Z,98654.03
2023-04-04T20:50:36.304Z,98646.34
2023-04-04T20:53:06.332Z,98648.19
2023-04-04T20:55:35.818Z,98644.00
2023-04-04T20:58:27.002Z,98646.59
2023-04-04T21:00:57.050Z,98656.09
2023-04-04T21:03:31.486Z,98648.38
2023-04-04T21:06:14.736Z,98653.63
2023-04-04T21:08:50.743Z,98646.81
2023-04-04T21:11:33.466Z,98653.81
2023-04-04T21:14:01.110Z,98652.06
2023-04-04T21:16:29.601Z,98644.47
2023-04-04T21:19:01.833Z,98650.47
2023-04-04T21:21:29.983Z,98649.69
2023-04-04T21:24:01.690Z,98648.97
2023-04-04T21:26:41.020Z,98650.66
2023-04-04T21:29:21.993Z,98650.81
2023-04-04T21:31:52.653Z,98650.13
2023-04-04T21:34:23.589Z,98644.09
2023-04-04T21:36:55.978Z,98649.25
2023-04-04T21:39:29.548Z,98637.31
2023-04-04T21:42:08.511Z,98646.06
2023-04-04T21:44:36.682Z,98638.28
2023-04-04T21:47:04.746Z,98638.34
2023-04-04T21:49:32.354Z,98635.84
2023-04-04T21:51:59.666Z,98629.06
2023-04-04T21:54:27.256Z,98629.06
2023-04-04T21:56:54.471Z,98627.38
2023-04-04T21:59:22.042Z,98621.38
2023-04-04T22:01:50.830Z,98617.19
2023-04-04T22:04:18.474Z,98624.00
2023-04-04T22:06:46.122Z,98621.41
2023-04-04T22:09:16.147Z,98618.09
2023-04-04T22:11:44.634Z,98612.94
2023-04-04T22:14:18.204Z,98611.25
2023-04-04T22:16:45.830Z,98609.56
2023-04-04T22:19:13.595Z,98614.72
2023-04-04T22:21:48.221Z,98615.69
2023-04-04T22:24:18.515Z,98607.19
2023-04-04T22:26:46.240Z,98611.47
2023-04-04T22:29:14.267Z,98609.00
2023-04-04T22:31:41.701Z,98608.16
2023-04-04T22:34:09.672Z,98607.34
2023-04-04T22:36:38.732Z,98600.56
2023-04-04T22:39:06.415Z,98610.91
2023-04-04T22:41:33.705Z,98614.34
2023-04-04T22:44:01.286Z,98611.00
2023-04-04T22:46:29.635Z,98606.75
2023-04-04T22:49:05.663Z,98608.38
2023-04-04T22:51:44.085Z,98609.34
2023-04-04T22:54:16.790Z,98608.56
2023-04-04T22:56:44.657Z,98609.53
2023-04-04T22:59:12.530Z,98606.22
2023-04-04T23:01:40.253Z,98602.03
2023-04-04T23:04:08.287Z,98599.47
2023-04-04T23:06:36.127Z,98596.22
2023-04-04T23:09:04.255Z,98595.38
2023-04-04T23:11:31.527Z,98597.97
2023-04-04T23:14:00.502Z,98596.31
2023-04-04T23:16:29.044Z,98598.13
2023-04-04T23:18:57.252Z,98593.19
2023-04-04T23:21:25.096Z,98589.13
2023-04-04T23:23:52.818Z,98583.19
2023-04-04T23:26:20.086Z,98583.22
2023-04-04T23:28:47.834Z,98591.09
2023-04-04T23:31:16.367Z,98585.09
2023-04-04T23:33:44.144Z,98574.03
2023-04-04T23:36:11.414Z,98573.31
2023-04-04T23:38:38.993Z,98576.69
2023-04-04T23:41:06.818Z,98574.94
2023-04-04T23:43:36.072Z,98568.97
2023-04-04T23:46:03.805Z,98565.59
2023-04-04T23:48:32.101Z,98566.50
2023-04-04T23:51:01.843Z,98562.31
2023-04-04T23:53:29.688Z,98565.69
2023-04-04T23:55:57.043Z,98564.84
2023-04-04T23:58:24.737Z,98564.81
